Time;durP1;ratioP1;P1;durP2;ratioP2;P2;SDS_P1;SDS_P2;PMS_P1;PMS_P2;Temp;Humidity;BMP_temperature;BMP_pressure;BME280_temperature;BME280_humidity;BME280_pressure;Samples;Min_cycle;Max_cycle;Signal;HPM_P1;HPM_P2
2022/09/26 00:00:46;;;;;;;8.75;7.18;;;;;;;10.42;93.47;96905.34;5004461;28;20149;-63
2022/09/26 00:03:13;;;;;;;13.10;7.68;;;;;;;10.61;94.33;96941.25;5004272;28;20049;-63
2022/09/26 00:05:40;;;;;;;9.25;7.03;;;;;;;10.16;94.30;96885.94;5004426;28;20092;-64
2022/09/26 00:08:07;;;;;;;9.27;7.75;;;;;;;10.52;94.96;96931.63;5005008;28;20132;-63
2022/09/26 00:10:33;;;;;;;9.15;7.25;;;;;;;10.39;95.04;96905.28;5004314;28;20572;-62
2022/09/26 00:13:00;;;;;;;10.13;7.97;;;;;;;9.96;94.51;96833.81;5019856;28;20143;-63
2022/09/26 00:15:27;;;;;;;8.70;6.88;;;;;;;10.51;94.66;96928.03;5023768;28;20088;-62
2022/09/26 00:17:53;;;;;;;11.20;8.07;;;;;;;10.28;94.59;96910.69;5024699;28;20132;-63
2022/09/26 00:20:20;;;;;;;9.50;7.85;;;;;;;9.89;94.80;96859.41;5024000;28;20092;-63
2022/09/26 00:22:46;;;;;;;10.98;9.20;;;;;;;9.56;94.72;96809.47;5023065;28;20484;-63
2022/09/26 00:25:13;;;;;;;13.43;9.00;;;;;;;10.47;92.32;96946.59;5024190;28;20045;-62
2022/09/26 00:27:39;;;;;;;10.38;8.07;;;;;;;10.28;92.76;96949.44;5024159;28;20136;-64
2022/09/26 00:30:06;;;;;;;11.70;8.07;;;;;;;10.20;92.71;96950.47;5024511;28;20092;-63
2022/09/26 00:32:33;;;;;;;10.48;8.23;;;;;;;10.09;92.27;96952.28;5024575;28;20089;-62
2022/09/26 00:35:00;;;;;;;12.70;9.75;;;;;;;9.94;93.09;96955.91;5023282;28;20049;-67
2022/09/26 00:37:26;;;;;;;12.88;9.63;;;;;;;9.61;93.50;96897.63;5022987;28;20485;-63
2022/09/26 00:39:53;;;;;;;13.95;9.25;;;;;;;9.96;94.02;96936.19;5022941;28;20566;-62
2022/09/26 00:42:21;;;;;;;15.05;11.35;;;;;;;9.93;94.31;96940.50;5022798;28;20132;-63
2022/09/26 00:44:54;;;;;;;18.27;11.27;;;;;;;9.96;93.62;96931.44;5024663;28;20124;-63
2022/09/26 00:47:24;;;;;;;16.67;11.20;;;;;;;9.81;94.46;96901.94;5022817;28;20132;-63
2022/09/26 00:49:57;;;;;;;13.20;10.15;;;;;;;9.68;95.22;96883.94;5024276;28;20084;-63
2022/09/26 00:52:28;;;;;;;11.68;8.43;;;;;;;10.07;95.09;96926.94;5022643;28;20084;-63
2022/09/26 00:55:00;;;;;;;14.10;10.35;;;;;;;10.00;94.52;96893.59;5024064;28;20132;-63
2022/09/26 00:57:34;;;;;;;16.17;13.05;;;;;;;10.11;94.69;96913.16;5023898;28;20492;-65
2022/09/26 01:00:08;;;;;;;19.02;14.02;;;;;;;9.97;95.36;96916.47;5022950;28;20081;-64
2022/09/26 01:02:35;;;;;;;16.70;12.60;;;;;;;9.50;95.46;96841.31;5024361;28;20103;-63
2022/09/26 01:05:04;;;;;;;13.40;10.43;;;;;;;10.04;94.82;96927.63;5024126;28;20057;-62
2022/09/26 01:07:33;;;;;;;17.23;12.10;;;;;;;9.92;94.17;96900.16;5024152;28;20136;-63
2022/09/26 01:10:03;;;;;;;17.25;11.90;;;;;;;9.59;93.35;96844.66;5024404;28;20139;-63
2022/09/26 01:12:31;;;;;;;13.30;10.63;;;;;;;9.34;94.67;96809.47;5024412;28;20951;-63
2022/09/26 01:14:58;;;;;;;12.68;9.07;;;;;;;9.94;95.09;96906.09;5025197;28;20061;-63
2022/09/26 01:17:25;;;;;;;13.27;10.15;;;;;;;9.53;95.00;96865.47;5026372;28;20088;-62
2022/09/26 01:20:10;;;;;;;15.05;11.32;;;;;;;10.07;94.66;96918.63;5027606;28;20153;-64
2022/09/26 01:22:55;;;;;;;14.95;10.98;;;;;;;9.93;94.02;96917.53;5027512;28;20409;-65
2022/09/26 01:25:53;;;;;;;14.40;10.93;;;;;;;9.58;95.14;96881.75;5027771;28;20132;-63
2022/09/26 01:29:11;;;;;;;13.13;10.50;;;;;;;9.76;95.89;96921.63;5027784;28;20088;-64
2022/09/26 01:35:17;;;;;;;13.25;9.00;;;;;;;9.70;93.91;96916.75;5025561;28;20054;-62
2022/09/26 01:38:06;;;;;;;11.98;9.55;;;;;;;9.68;94.46;96908.00;5027410;28;20053;-63
2022/09/26 01:40:32;;;;;;;13.48;9.75;;;;;;;9.67;95.10;96903.66;5026910;28;20080;-63
2022/09/26 01:43:18;;;;;;;10.77;8.15;;;;;;;9.10;95.56;96799.56;5027307;28;20560;-62
2022/09/26 01:45:59;;;;;;;11.80;8.30;;;;;;;9.81;95.88;96907.50;5027403;28;20053;-62
2022/09/26 01:48:57;;;;;;;9.65;7.95;;;;;;;9.71;96.42;96902.56;5027309;28;20065;-63
2022/09/26 01:51:34;;;;;;;9.57;7.22;;;;;;;9.63;96.80;96914.66;5026485;28;20499;-63
2022/09/26 01:54:24;;;;;;;9.75;7.45;;;;;;;9.61;96.98;96913.44;5026686;28;20141;-62
2022/09/26 01:56:56;;;;;;;9.18;7.15;;;;;;;9.55;97.28;96914.91;5027347;28;20053;-62
2022/09/26 01:59:39;;;;;;;12.90;8.13;;;;;;;9.49;99.14;96917.16;5025119;28;20088;-63
2022/09/26 02:02:17;;;;;;;11.52;7.80;;;;;;;9.55;98.74;96925.97;5026781;28;20096;-62
2022/09/26 02:04:49;;;;;;;14.45;10.10;;;;;;;9.29;97.34;96929.41;5026987;28;20810;-62
2022/09/26 02:07:22;;;;;;;13.18;9.88;;;;;;;9.04;97.53;96928.09;5026734;28;20081;-62
2022/09/26 02:10:04;;;;;;;15.13;10.02;;;;;;;8.66;97.08;96889.41;5026929;28;20108;-63
2022/09/26 02:12:38;;;;;;;14.10;10.43;;;;;;;8.89;96.76;96931.72;5026581;28;20574;-64
2022/09/26 02:15:13;;;;;;;14.25;9.98;;;;;;;8.82;97.69;96928.81;5026719;28;20143;-61
2022/09/26 02:17:51;;;;;;;12.82;9.40;;;;;;;8.69;95.81;96916.28;5026285;28;20148;-60
2022/09/26 02:20:28;;;;;;;15.48;10.38;;;;;;;8.75;95.94;96928.66;5026425;28;20081;-62
2022/09/26 02:23:02;;;;;;;12.48;9.75;;;;;;;8.52;95.61;96883.56;5024918;28;20111;-61
2022/09/26 02:25:30;;;;;;;18.77;10.25;;;;;;;8.62;96.97;96929.94;5025794;28;20413;-63
2022/09/26 02:27:57;;;;;;;16.15;10.98;;;;;;;8.77;96.86;96924.34;5026137;28;20134;-61
2022/09/26 02:30:23;;;;;;;12.90;9.68;;;;;;;8.89;95.96;96920.66;5024692;28;20053;-63
2022/09/26 02:32:50;;;;;;;16.60;9.98;;;;;;;8.37;96.75;96826.44;5026581;28;20118;-62
2022/09/26 02:38:05;;;;;;;13.23;9.98;;;;;;;8.93;100.00;96910.50;5026250;28;20085;-64
2022/09/26 02:40:43;;;;;;;14.98;9.68;;;;;;;9.01;100.00;96913.03;5024189;28;20088;-61
2022/09/26 02:43:39;;;;;;;13.13;9.75;;;;;;;8.99;100.00;96903.53;5026219;28;20056;-62
2022/09/26 02:46:48;;;;;;;9.82;8.32;;;;;;;9.05;100.00;96907.59;5025795;28;20554;-62
2022/09/26 02:49:44;;;;;;;10.82;7.80;;;;;;;8.98;100.00;96896.38;5024532;28;20152;-62
2022/09/26 02:52:36;;;;;;;14.25;8.02;;;;;;;9.06;100.00;96903.66;5024759;28;20509;-61
2022/09/26 02:55:09;;;;;;;10.60;7.30;;;;;;;8.76;100.00;96861.19;5025705;28;20441;-64
2022/09/26 02:57:53;;;;;;;10.38;8.00;;;;;;;8.97;100.00;96908.59;5025652;28;20144;-62
2022/09/26 03:00:24;;;;;;;12.02;8.45;;;;;;;9.06;100.00;96895.38;5024337;28;20088;-62
2022/09/26 03:03:11;;;;;;;9.80;7.90;;;;;;;9.12;100.00;96896.66;5026431;28;20471;-62
2022/09/26 03:05:42;;;;;;;11.48;7.95;;;;;;;9.02;100.00;96875.16;5025716;28;20471;-65
2022/09/26 03:08:15;;;;;;;13.65;8.23;;;;;;;9.17;100.00;96896.38;5026025;28;20136;-63
2022/09/26 03:10:43;;;;;;;12.00;8.45;;;;;;;9.05;100.00;96899.31;5025296;28;20535;-63
2022/09/26 03:13:12;;;;;;;10.63;8.90;;;;;;;8.98;98.92;96899.16;5025523;28;20049;-62
2022/09/26 03:15:44;;;;;;;13.93;9.35;;;;;;;8.95;98.61;96897.94;5023634;28;20068;-62
2022/09/26 03:18:18;;;;;;;10.05;8.52;;;;;;;8.90;98.77;96894.63;5025759;28;20045;-64
2022/09/26 03:20:45;;;;;;;14.25;9.38;;;;;;;8.84;98.08;96891.38;5025382;28;20983;-62
2022/09/26 03:23:12;;;;;;;12.57;9.13;;;;;;;8.23;98.64;96793.03;5025794;28;20486;-63
2022/09/26 03:25:39;;;;;;;14.48;9.00;;;;;;;8.63;98.43;96854.25;5025125;28;20476;-62
2022/09/26 03:28:06;;;;;;;12.70;9.43;;;;;;;8.53;98.28;96829.97;5025049;28;20072;-63
2022/09/26 03:30:33;;;;;;;15.93;9.57;;;;;;;8.99;96.82;96875.91;5024932;28;20057;-62
2022/09/26 03:33:02;;;;;;;15.70;8.88;;;;;;;8.90;97.13;96884.41;5025649;28;20085;-62
2022/09/26 03:35:29;;;;;;;14.60;8.63;;;;;;;8.45;97.93;96842.81;5024978;28;20179;-62
2022/09/26 03:37:55;;;;;;;11.65;9.35;;;;;;;8.66;96.97;96839.72;5022985;28;20586;-63
2022/09/26 03:40:22;;;;;;;15.52;11.15;;;;;;;8.88;97.62;96874.88;5040003;28;20154;-62
2022/09/26 03:42:49;;;;;;;15.85;11.13;;;;;;;8.82;98.65;96854.25;5025127;28;20106;-63
2022/09/26 03:45:16;;;;;;;20.58;10.20;;;;;;;8.19;100.00;96877.66;5024925;28;20046;-62
2022/09/26 03:47:42;;;;;;;24.05;11.05;;;;;;;8.27;100.00;96876.66;5024987;28;20053;-63
2022/09/26 03:50:09;;;;;;;20.83;11.73;;;;;;;8.50;100.00;96874.84;5024626;28;20412;-62
2022/09/26 03:52:36;;;;;;;17.92;10.90;;;;;;;8.43;100.00;96880.19;5025118;28;20125;-62
2022/09/26 03:55:03;;;;;;;16.88;11.00;;;;;;;8.36;100.00;96875.31;5022907;28;20093;-61
2022/09/26 03:57:30;;;;;;;14.68;9.68;;;;;;;8.43;100.00;96869.16;5023226;28;20099;-63
2022/09/26 03:59:56;;;;;;;17.10;11.23;;;;;;;7.87;100.00;96763.84;5024511;28;20053;-64
2022/09/26 04:02:23;;;;;;;14.45;10.38;;;;;;;8.73;100.00;96872.97;5023174;28;20057;-64
2022/09/26 04:04:50;;;;;;;12.80;8.90;;;;;;;6.97;100.00;96642.84;5022992;28;20053;-63
2022/09/26 04:07:17;;;;;;;18.70;11.20;;;;;;;8.76;100.00;96872.25;5023342;28;20150;-60
2022/09/26 04:09:43;;;;;;;12.85;10.52;;;;;;;8.45;100.00;96822.69;5022854;28;20141;-62
2022/09/26 04:12:10;;;;;;;15.13;11.13;;;;;;;8.52;100.00;96817.34;5024113;28;20046;-62
2022/09/26 04:14:37;;;;;;;14.13;9.52;;;;;;;8.47;100.00;96856.25;5024383;28;20143;-62
2022/09/26 04:17:03;;;;;;;15.60;10.85;;;;;;;8.60;100.00;96863.25;5024103;28;20057;-62
2022/09/26 04:19:30;;;;;;;13.30;10.45;;;;;;;8.53;100.00;96821.69;5024019;28;20084;-63
2022/09/26 04:21:57;;;;;;;14.70;11.40;;;;;;;8.67;100.00;96831.06;5024137;28;20059;-63
2022/09/26 04:24:24;;;;;;;17.40;12.23;;;;;;;8.76;100.00;96817.81;5023331;28;20084;-62
2022/09/26 04:26:51;;;;;;;14.32;10.52;;;;;;;8.97;100.00;96850.59;5024451;28;20100;-64
2022/09/26 04:29:17;;;;;;;16.80;12.05;;;;;;;9.01;100.00;96840.41;5024247;28;20175;-63
2022/09/26 04:31:44;;;;;;;18.35;11.48;;;;;;;9.10;100.00;96860.34;5023962;28;20072;-63
2022/09/26 04:34:11;;;;;;;12.63;9.70;;;;;;;9.11;100.00;96839.81;5023936;28;20465;-64
2022/09/26 04:36:38;;;;;;;14.10;10.50;;;;;;;9.08;99.68;96829.50;5022878;28;20081;-62
2022/09/26 04:39:05;;;;;;;20.95;16.58;;;;;;;8.67;99.35;96780.56;5024132;28;20109;-63
2022/09/26 04:41:32;;;;;;;21.90;17.52;;;;;;;9.16;99.32;96869.91;5023662;28;20482;-64
2022/09/26 04:43:59;;;;;;;24.88;19.45;;;;;;;9.18;99.97;96867.59;5024121;28;20146;-63
2022/09/26 04:46:28;;;;;;;20.73;16.08;;;;;;;9.29;98.27;96868.59;5023853;28;20500;-63
2022/09/26 04:48:58;;;;;;;20.02;15.15;;;;;;;9.29;97.10;96870.56;5025337;28;20080;-62
2022/09/26 04:51:26;;;;;;;19.67;14.38;;;;;;;8.32;99.55;96752.22;5026455;28;20147;-62
2022/09/26 04:53:53;;;;;;;20.95;14.40;;;;;;;8.84;100.00;96912.66;5028360;28;20084;-61
2022/09/26 04:56:22;;;;;;;21.63;14.95;;;;;;;9.03;100.00;96877.56;5027824;28;20132;-62
2022/09/26 04:58:49;;;;;;;21.38;15.88;;;;;;;9.24;100.00;96879.94;5028091;28;20158;-63
2022/09/26 05:01:18;;;;;;;18.65;15.65;;;;;;;9.39;99.98;96923.28;5027481;28;20053;-62
2022/09/26 05:03:46;;;;;;;19.33;12.20;;;;;;;9.33;98.47;96843.78;5027045;28;20460;-63
2022/09/26 05:06:14;;;;;;;21.65;13.00;;;;;;;8.31;100.00;96805.81;5026404;28;20127;-62
2022/09/26 05:08:43;;;;;;;21.88;12.48;;;;;;;8.70;100.00;96840.56;5026581;28;20061;-64
2022/09/26 05:11:10;;;;;;;19.02;13.07;;;;;;;9.12;100.00;96871.81;5034326;28;20103;-62
2022/09/26 05:13:37;;;;;;;20.42;13.88;;;;;;;8.72;99.94;96794.06;5047907;28;20085;-64
2022/09/26 05:16:07;;;;;;;19.60;11.13;;;;;;;9.37;100.00;96867.56;5045472;28;20439;-71
2022/09/26 05:18:35;;;;;;;15.98;10.20;;;;;;;9.14;100.00;96822.50;5047940;28;20077;-63
2022/09/26 05:21:02;;;;;;;18.30;9.85;;;;;;;9.57;100.00;96852.53;5045700;28;20084;-63
2022/09/26 05:26:43;;;;;;;11.15;9.15;;;;;;;9.15;100.00;96750.28;5004957;28;20144;-63
2022/09/26 05:29:10;;;;;;;15.13;10.30;;;;;;;9.55;100.00;96818.91;5005284;28;20153;-65
2022/09/26 05:31:38;;;;;;;23.98;11.85;;;;;;;10.03;98.76;96845.81;5028050;28;20061;-62
2022/09/26 05:34:08;;;;;;;23.40;11.85;;;;;;;10.17;97.34;96865.44;5045975;28;20056;-63
2022/09/26 05:36:35;;;;;;;18.80;11.70;;;;;;;10.29;96.76;96854.13;5036906;28;20084;-63
2022/09/26 05:39:04;;;;;;;18.80;10.30;;;;;;;9.94;94.65;96795.44;5029636;28;20107;-62
2022/09/26 05:41:32;;;;;;;14.25;9.65;;;;;;;9.04;93.38;96668.41;5027001;28;20057;-64
2022/09/26 05:43:59;;;;;;;17.45;10.70;;;;;;;10.33;94.05;96849.47;5035781;28;20128;-68
2022/09/26 05:46:30;;;;;;;15.10;10.77;;;;;;;10.50;94.15;96860.00;5027176;28;20575;-64
2022/09/26 05:48:57;;;;;;;16.77;10.90;;;;;;;8.69;91.63;96518.72;5026784;28;20064;-65
2022/09/26 05:51:24;;;;;;;14.63;10.05;;;;;;;10.36;89.85;96746.28;5036538;28;20049;-65
2022/09/26 05:53:50;;;;;;;13.38;9.70;;;;;;;10.87;87.68;96762.31;5045022;28;20049;-62
2022/09/26 05:56:18;;;;;;;12.00;9.18;;;;;;;10.91;88.05;96747.31;5040669;28;20213;-67
2022/09/26 05:58:45;;;;;;;15.10;10.00;;;;;;;11.66;86.62;96825.34;5026587;28;20077;-61
2022/09/26 06:01:17;;;;;;;14.13;10.05;;;;;;;12.36;85.27;96863.19;5034590;28;20132;-68
2022/09/26 06:03:45;;;;;;;15.57;10.93;;;;;;;12.66;83.08;96861.78;5046234;28;20338;-66
2022/09/26 06:06:20;;;;;;;15.18;10.00;;;;;;;12.79;82.39;96863.06;5046193;28;20159;-66
2022/09/26 06:08:48;;;;;;;14.10;8.85;;;;;;;12.93;82.23;96849.22;5047129;28;20136;-67
2022/09/26 06:11:17;;;;;;;12.35;8.57;;;;;;;12.73;81.46;96797.91;5038875;28;20080;-62
2022/09/26 06:13:45;;;;;;;9.70;8.23;;;;;;;12.82;80.56;96776.09;5027415;28;20088;-68
2022/09/26 06:16:17;;;;;;;18.70;8.00;;;;;;;11.52;80.96;96519.28;5032074;28;20595;-66
2022/09/26 06:18:45;;;;;;;12.15;9.43;;;;;;;12.98;79.87;96712.63;5027900;28;20041;-66
2022/09/26 06:21:14;;;;;;;12.30;8.60;;;;;;;14.04;77.84;96849.13;5055756;28;20504;-65
2022/09/26 06:23:41;;;;;;;16.90;9.80;;;;;;;13.93;77.48;96798.22;5057437;28;20056;-67
2022/09/26 06:26:13;;;;;;;11.98;8.43;;;;;;;14.43;76.57;96841.59;5048784;28;20136;-60
2022/09/26 06:28:40;;;;;;;13.30;8.60;;;;;;;14.54;74.83;96847.97;5044960;28;20140;-64
2022/09/26 06:31:12;;;;;;;10.70;8.68;;;;;;;14.44;74.77;96796.63;5045754;28;20103;-62
2022/09/26 06:33:40;;;;;;;14.00;7.88;;;;;;;13.84;74.93;96703.16;5063549;28;20080;-65
2022/09/26 06:36:09;;;;;;;10.73;8.32;;;;;;;14.26;74.20;96725.38;5052790;28;20493;-62
2022/09/26 06:38:37;;;;;;;15.60;8.98;;;;;;;15.23;72.42;96835.00;5030667;28;20119;-62
2022/09/26 06:41:06;;;;;;;8.98;7.65;;;;;;;15.00;70.28;96765.75;5029313;28;20089;-68
2022/09/26 06:43:33;;;;;;;13.38;8.30;;;;;;;14.28;69.70;96601.22;5036487;28;20416;-73
2022/09/26 06:45:59;;;;;;;16.15;7.95;;;;;;;15.85;68.57;96837.88;5035783;28;20163;-63
2022/09/26 06:48:26;;;;;;;7.97;7.28;;;;;;;15.63;67.67;96742.28;5026425;28;20081;-66
2022/09/26 06:50:55;;;;;;;9.05;7.75;;;;;;;15.67;66.13;96681.59;5026770;28;20045;-65
2022/09/26 06:53:22;;;;;;;16.23;8.73;;;;;;;16.83;65.42;96819.44;5033049;28;20049;-66
2022/09/26 06:55:49;;;;;;;12.73;8.50;;;;;;;16.85;65.28;96822.63;5036840;28;20052;-61
2022/09/26 06:58:16;;;;;;;16.13;8.70;;;;;;;17.27;64.00;96816.50;5045552;28;20491;-65
2022/09/26 07:00:43;;;;;;;9.38;6.65;;;;;;;17.17;63.59;96806.22;5045135;28;20306;-63
2022/09/26 07:03:12;;;;;;;9.48;6.65;;;;;;;17.25;62.69;96808.53;5044874;28;20056;-66
2022/09/26 07:05:38;;;;;;;12.23;9.27;;;;;;;17.35;61.90;96795.59;5039748;28;20085;-62
2022/09/26 07:08:05;;;;;;;8.40;7.60;;;;;;;17.29;61.13;96758.09;5032835;28;20076;-64
2022/09/26 07:10:36;;;;;;;7.97;7.10;;;;;;;17.86;60.10;96820.53;5044700;28;20048;-66
2022/09/26 07:13:06;;;;;;;9.40;6.85;;;;;;;17.54;59.37;96752.97;5045090;28;20076;-65
2022/09/26 07:15:34;;;;;;;6.80;6.05;;;;;;;18.24;58.05;96777.03;5037320;28;20127;-67
2022/09/26 07:18:05;;;;;;;7.40;5.25;;;;;;;18.01;56.16;96715.38;5025408;28;20052;-67
2022/09/26 07:20:35;;;;;;;6.72;5.90;;;;;;;17.47;57.25;96613.03;5025900;28;20060;-68
2022/09/26 07:23:09;;;;;;;8.60;6.35;;;;;;;18.99;56.03;96797.72;5041224;28;20106;-63
2022/09/26 07:25:38;;;;;;;5.40;4.90;;;;;;;18.94;52.91;96767.31;5036916;28;20088;-73
2022/09/26 07:28:06;;;;;;;7.60;6.20;;;;;;;18.54;52.47;96681.53;5040056;28;20061;-66
2022/09/26 07:30:33;;;;;;;6.80;4.80;;;;;;;18.99;52.64;96735.16;5024364;28;20081;-65
2022/09/26 07:33:02;;;;;;;7.05;5.68;;;;;;;19.54;52.55;96800.59;5048466;28;20150;-62
2022/09/26 07:35:34;;;;;;;6.97;5.65;;;;;;;18.99;52.75;96687.41;5049382;28;20103;-61
2022/09/26 07:38:01;;;;;;;8.73;5.43;;;;;;;19.80;54.03;96798.00;5032035;28;20087;-66
2022/09/26 07:40:28;;;;;;;10.88;5.43;;;;;;;20.01;52.77;96791.91;5050477;28;20804;-64
2022/09/26 07:42:59;;;;;;;6.53;5.93;;;;;;;20.31;51.56;96797.22;5030952;28;20507;-65
2022/09/26 07:51:15;;;;;;;11.60;6.93;;;;;;;20.81;50.70;96791.88;5024873;28;20088;-63
2022/09/26 07:53:42;;;;;;;8.60;5.72;;;;;;;20.83;49.88;96789.41;5024712;28;20128;-63
2022/09/26 07:56:11;;;;;;;12.13;5.28;;;;;;;20.91;49.76;96773.91;5048358;28;20085;-65
2022/09/26 07:58:42;;;;;;;6.20;5.43;;;;;;;21.16;49.53;96778.84;5044898;28;20052;-66
2022/09/26 08:01:11;;;;;;;6.82;5.20;;;;;;;20.47;48.93;96637.56;5044329;28;20500;-63
2022/09/26 08:03:39;;;;;;;6.30;4.97;;;;;;;21.31;47.44;96741.34;5044646;28;20156;-63
2022/09/26 08:06:06;;;;;;;15.48;6.28;;;;;;;20.95;48.22;96727.50;5044571;28;20104;-63
2022/09/26 08:08:33;;;;;;;5.40;4.53;;;;;;;21.63;45.51;96783.47;5043067;28;20124;-65
2022/09/26 08:11:00;;;;;;;10.60;6.70;;;;;;;21.76;45.76;96780.69;5044090;28;20057;-64
2022/09/26 08:13:31;;;;;;;6.55;5.80;;;;;;;21.37;45.22;96784.63;5044786;28;20647;-63
2022/09/26 08:16:04;;;;;;;6.13;4.88;;;;;;;21.48;45.33;96773.84;5044113;28;20100;-62
2022/09/26 08:18:32;;;;;;;5.60;5.10;;;;;;;21.27;45.49;96739.88;5042791;28;20103;-63
2022/09/26 08:21:00;;;;;;;5.53;5.13;;;;;;;21.13;45.06;96698.03;5044434;28;20049;-65
2022/09/26 08:23:27;;;;;;;5.50;5.10;;;;;;;21.60;45.65;96759.00;5038787;28;20049;-67
2022/09/26 08:25:58;;;;;;;7.75;5.07;;;;;;;21.92;44.77;96760.84;5043173;28;20138;-66
2022/09/26 08:28:27;;;;;;;5.82;5.03;;;;;;;21.54;43.25;96642.41;5045059;28;20069;-60
2022/09/26 08:30:59;;;;;;;5.53;5.10;;;;;;;21.88;43.58;96701.72;5039407;28;20059;-65
2022/09/26 08:33:26;;;;;;;6.15;5.55;;;;;;;21.64;43.85;96623.56;5037351;28;20053;-72
2022/09/26 08:35:52;;;;;;;5.38;4.95;;;;;;;21.54;42.72;96566.31;5035446;28;20084;-66
2022/09/26 08:38:19;;;;;;;6.00;5.10;;;;;;;22.74;42.65;96720.97;5044865;28;20092;-65
2022/09/26 08:41:02;;;;;;;6.43;5.75;;;;;;;22.99;42.02;96722.88;5044022;28;20076;-63
2022/09/26 08:43:44;;;;;;;6.25;5.57;;;;;;;22.96;41.89;96718.13;5044228;28;20055;-63
2022/09/26 08:46:44;;;;;;;16.98;10.00;;;;;;;23.13;41.44;96716.69;5044132;28;20081;-65
2022/09/26 08:49:47;;;;;;;5.30;5.00;;;;;;;22.99;41.89;96708.75;5044110;28;20432;-65
2022/09/26 08:52:36;;;;;;;7.13;4.88;;;;;;;23.07;42.18;96712.88;5044163;28;20088;-65
2022/09/26 08:55:16;;;;;;;7.30;6.55;;;;;;;22.68;41.73;96690.94;5042609;28;20077;-64
2022/09/26 08:57:54;;;;;;;5.50;5.00;;;;;;;22.26;41.94;96603.69;5042081;28;20056;-70
2022/09/26 09:00:23;;;;;;;6.22;5.63;;;;;;;22.93;41.09;96690.81;5039018;28;20536;-70
2022/09/26 09:03:09;;;;;;;6.22;5.63;;;;;;;23.08;41.32;96703.19;5019143;28;20119;-68
2022/09/26 09:05:57;;;;;;;5.72;5.32;;;;;;;23.03;41.42;96724.31;5039776;28;20256;-70
2022/09/26 09:08:37;;;;;;;5.43;4.93;;;;;;;22.73;42.38;96693.94;5036820;28;20041;-72
2022/09/26 09:11:32;;;;;;;5.63;5.22;;;;;;;22.64;42.24;96691.06;5063480;28;20151;-69
2022/09/26 09:14:02;;;;;;;7.15;6.53;;;;;;;22.41;42.83;96672.47;5063173;28;20056;-67
2022/09/26 09:16:50;;;;;;;10.50;6.18;;;;;;;22.60;42.31;96675.50;5061779;28;20557;-65
2022/09/26 09:19:22;;;;;;;5.63;5.13;;;;;;;22.82;42.59;96662.97;5061631;28;20045;-66
2022/09/26 09:22:04;;;;;;;6.72;5.80;;;;;;;23.14;42.04;96673.06;5062326;28;20087;-64
2022/09/26 09:24:39;;;;;;;6.55;5.45;;;;;;;23.49;40.77;96666.06;5063140;28;20503;-64
2022/09/26 09:27:28;;;;;;;6.35;5.75;;;;;;;23.55;40.51;96664.19;5063760;28;20092;-64
2022/09/26 09:30:42;;;;;;;11.15;5.65;;;;;;;23.47;40.34;96628.97;5061810;28;20504;-64
2022/09/26 09:33:14;;;;;;;5.85;5.35;;;;;;;23.96;40.54;96660.09;5050273;28;20140;-64
2022/09/26 09:36:07;;;;;;;5.72;5.25;;;;;;;24.17;39.79;96662.06;5043979;28;20057;-67
2022/09/26 09:38:37;;;;;;;7.82;6.13;;;;;;;24.28;39.54;96660.34;5047573;28;20067;-66
2022/09/26 09:41:18;;;;;;;6.82;6.13;;;;;;;24.32;39.56;96648.88;5045247;28;20496;-66
2022/09/26 09:44:17;;;;;;;5.93;5.35;;;;;;;24.50;39.21;96654.56;5045355;28;20085;-66
2022/09/26 09:46:44;;;;;;;6.22;5.60;;;;;;;24.59;38.99;96658.19;5045641;28;20110;-66
2022/09/26 09:49:18;;;;;;;9.27;8.32;;;;;;;24.68;38.92;96661.03;5045171;28;20056;-59
2022/09/26 09:51:53;;;;;;;10.63;5.72;;;;;;;24.60;38.71;96665.41;5049586;28;20467;-67
2022/09/26 09:54:29;;;;;;;6.30;5.78;;;;;;;24.46;39.58;96649.03;5046378;28;20488;-62
2022/09/26 09:57:25;;;;;;;7.10;6.50;;;;;;;24.26;39.37;96592.09;5049217;28;20530;-68
2022/09/26 10:00:09;;;;;;;7.30;5.97;;;;;;;24.53;39.44;96628.13;5046659;28;20139;-63
2022/09/26 10:03:00;;;;;;;6.13;5.63;;;;;;;24.46;39.05;96603.72;5047552;28;20052;-64
2022/09/26 10:05:45;;;;;;;6.35;5.75;;;;;;;24.87;38.58;96628.59;5047148;28;20690;-61
2022/09/26 10:08:15;;;;;;;6.13;5.55;;;;;;;25.06;38.55;96613.13;5037369;28;20432;-67
2022/09/26 10:10:59;;;;;;;6.35;5.93;;;;;;;25.04;38.22;96573.13;5049404;28;20044;-67
2022/09/26 10:13:30;;;;;;;7.03;6.53;;;;;;;25.47;38.03;96619.31;5046948;28;20122;-60
2022/09/26 10:16:03;;;;;;;6.72;6.13;;;;;;;25.64;38.06;96618.44;5040758;28;20121;-64
2022/09/26 10:18:30;;;;;;;5.80;5.40;;;;;;;24.83;37.13;96497.59;5066528;28;20052;-63
2022/09/26 10:21:01;;;;;;;6.10;5.60;;;;;;;25.73;36.96;96626.94;5066852;28;20488;-63
2022/09/26 10:23:35;;;;;;;8.75;5.90;;;;;;;25.84;37.10;96621.50;5064806;28;20135;-62
2022/09/26 10:26:06;;;;;;;6.40;5.90;;;;;;;24.30;36.38;96366.22;5056202;28;20136;-65
2022/09/26 10:28:44;;;;;;;6.28;5.70;;;;;;;26.01;36.52;96610.56;5043968;28;20080;-68
2022/09/26 10:31:20;;;;;;;7.15;6.45;;;;;;;26.07;36.89;96600.09;5052519;28;20092;-64
2022/09/26 10:33:57;;;;;;;6.63;6.15;;;;;;;25.95;36.16;96564.19;5040915;28;20060;-65
2022/09/26 10:36:30;;;;;;;6.57;6.18;;;;;;;26.35;35.67;96599.41;5031699;28;20310;-64
2022/09/26 10:41:45;;;;;;;6.45;5.88;;;;;;;25.75;36.71;96595.22;5046050;28;20319;-65
2022/09/26 10:44:24;;;;;;;5.82;5.38;;;;;;;25.62;36.70;96552.09;5046653;28;20088;-63
2022/09/26 10:46:56;;;;;;;6.70;6.30;;;;;;;25.26;36.51;96471.59;5044210;28;20084;-66
2022/09/26 10:49:33;;;;;;;6.13;5.72;;;;;;;25.10;36.45;96415.28;5042295;28;20057;-65
2022/09/26 10:52:14;;;;;;;7.22;6.50;;;;;;;25.30;36.41;96475.03;5043054;28;20380;-66
2022/09/26 10:55:08;;;;;;;7.13;6.38;;;;;;;25.83;36.52;96568.84;5047372;28;20060;-64
2022/09/26 10:57:38;;;;;;;7.10;6.50;;;;;;;25.77;36.63;96558.63;5047033;28;20060;-66
2022/09/26 11:00:07;;;;;;;7.22;6.32;;;;;;;24.53;37.09;96404.38;5045403;28;20106;-69
2022/09/26 11:02:37;;;;;;;7.32;6.70;;;;;;;25.04;38.13;96481.63;5045077;28;20095;-65
2022/09/26 11:07:51;;;;;;;8.30;7.60;;;;;;;26.26;37.29;96556.09;5065711;28;20049;-62
2022/09/26 11:10:33;;;;;;;7.18;6.50;;;;;;;25.70;36.74;96513.59;5059257;28;20083;-65
2022/09/26 11:13:03;;;;;;;5.47;5.18;;;;;;;25.42;36.42;96435.63;5065248;28;20499;-67
2022/09/26 11:15:30;;;;;;;6.43;5.85;;;;;;;25.90;36.58;96556.34;5063974;28;20060;-69
2022/09/26 11:17:57;;;;;;;8.77;7.30;;;;;;;25.90;37.30;96539.31;5050111;28;20132;-63
2022/09/26 11:20:54;;;;;;;6.35;5.88;;;;;;;26.42;36.15;96536.56;5054542;28;20049;-67
2022/09/26 11:23:33;;;;;;;6.97;6.43;;;;;;;25.59;36.42;96448.91;5044393;28;20571;-68
2022/09/26 11:26:20;;;;;;;6.88;6.32;;;;;;;24.88;36.00;96297.84;5050486;28;20125;-68
2022/09/26 11:29:00;;;;;;;15.05;6.53;;;;;;;23.39;36.20;96113.97;5053289;28;20046;-70
2022/09/26 11:31:33;;;;;;;7.03;6.38;;;;;;;26.70;36.05;96529.38;5045588;28;20064;-64
2022/09/26 11:34:03;;;;;;;6.85;6.22;;;;;;;26.89;35.40;96515.72;5028880;28;20155;-61
2022/09/26 11:36:48;;;;;;;7.30;6.60;;;;;;;27.15;34.89;96516.69;5038214;28;20607;-67
2022/09/26 11:39:29;;;;;;;7.00;6.30;;;;;;;26.37;35.28;96431.34;5043299;28;20056;-65
2022/09/26 11:42:14;;;;;;;7.78;6.90;;;;;;;26.32;35.46;96423.53;5049335;28;20566;-65
2022/09/26 11:44:55;;;;;;;8.32;6.45;;;;;;;26.17;35.95;96490.88;5062712;28;20168;-65
2022/09/26 11:47:40;;;;;;;6.50;5.90;;;;;;;26.34;35.75;96511.84;5057791;28;20076;-69
2022/09/26 11:50:25;;;;;;;8.27;5.80;;;;;;;26.14;36.37;96517.41;5049007;28;20056;-64
2022/09/26 11:53:08;;;;;;;7.75;7.10;;;;;;;26.05;36.88;96511.81;5059528;28;20427;-60
2022/09/26 11:56:00;;;;;;;6.85;6.05;;;;;;;26.18;36.44;96506.63;5062816;28;20150;-67
2022/09/26 11:58:58;;;;;;;6.60;6.05;;;;;;;25.73;36.45;96506.94;5063930;28;20060;-67
2022/09/26 12:01:41;;;;;;;8.35;6.13;;;;;;;25.81;37.03;96502.50;5044413;28;20140;-67
2022/09/26 12:04:14;;;;;;;6.35;5.80;;;;;;;25.01;37.27;96435.19;5043015;28;20060;-67
2022/09/26 12:06:44;;;;;;;6.45;5.28;;;;;;;25.29;37.79;96490.47;5044862;28;20091;-67
2022/09/26 12:09:34;;;;;;;10.75;5.95;;;;;;;24.43;37.98;96341.31;5044979;28;20064;-63
2022/09/26 12:12:33;;;;;;;7.30;5.60;;;;;;;25.58;37.44;96483.41;5040903;28;20147;-64
2022/09/26 12:15:22;;;;;;;7.50;6.80;;;;;;;25.95;37.82;96484.72;5043006;28;20446;-61
2022/09/26 12:18:00;;;;;;;7.03;6.40;;;;;;;26.03;36.06;96497.28;5044878;28;20338;-62